createdAt,value
2023-01-31T00:01:40.897Z,15.27
2023-01-31T00:04:09.272Z,15.34
2023-01-31T00:06:39.551Z,15.36
2023-01-31T00:09:09.496Z,15.32
2023-01-31T00:11:37.538Z,15.34
2023-01-31T00:14:06.932Z,15.36
2023-01-31T00:16:34.150Z,15.26
2023-01-31T00:19:00.873Z,15.26
2023-01-31T00:21:29.439Z,15.17
2023-01-31T00:23:57.468Z,15.12
2023-01-31T00:26:27.307Z,14.96
2023-01-31T00:28:55.765Z,15.00
2023-01-31T00:31:24.345Z,14.91
2023-01-31T00:33:52.897Z,14.86
2023-01-31T00:36:22.646Z,14.88
2023-01-31T00:38:50.095Z,14.72
2023-01-31T00:41:18.328Z,14.91
2023-01-31T00:43:46.548Z,14.86
2023-01-31T00:46:13.467Z,14.85
2023-01-31T00:48:40.375Z,14.84
2023-01-31T00:51:07.530Z,14.84
2023-01-31T00:53:35.053Z,14.92
2023-01-31T00:56:05.034Z,14.91
2023-01-31T00:58:31.859Z,14.89
2023-01-31T01:01:07.746Z,14.96
2023-01-31T01:03:35.409Z,14.94
2023-01-31T01:06:02.259Z,14.97
2023-01-31T01:08:29.965Z,14.89
2023-01-31T01:10:57.234Z,14.98
2023-01-31T01:13:23.965Z,15.05
2023-01-31T01:15:50.625Z,15.11
2023-01-31T01:18:19.040Z,14.95
2023-01-31T01:20:45.748Z,15.06
2023-01-31T01:23:12.443Z,14.92
2023-01-31T01:25:43.793Z,15.05
2023-01-31T01:28:10.607Z,15.29
2023-01-31T01:30:38.199Z,15.25
2023-01-31T01:33:05.079Z,15.11
2023-01-31T01:35:34.048Z,15.07
2023-01-31T01:38:00.919Z,15.16
2023-01-31T01:40:35.515Z,15.39
2023-01-31T01:43:02.195Z,15.63
2023-01-31T01:45:29.418Z,15.50
2023-01-31T01:48:00.067Z,15.50
2023-01-31T01:50:31.126Z,15.64
2023-01-31T01:53:03.506Z,15.60
2023-01-31T01:55:36.207Z,15.42
2023-01-31T01:58:07.156Z,15.61
2023-01-31T02:00:36.147Z,15.64
2023-01-31T02:03:06.423Z,15.63
2023-01-31T02:05:37.009Z,15.35
2023-01-31T02:08:05.302Z,15.58
2023-01-31T02:10:36.166Z,15.35
2023-01-31T02:13:04.118Z,15.44
2023-01-31T02:15:31.674Z,15.67
2023-01-31T02:17:58.435Z,15.44
2023-01-31T02:20:49.275Z,15.63
2023-01-31T02:23:55.028Z,15.58
2023-01-31T02:26:49.603Z,15.73
2023-01-31T02:29:46.421Z,15.86
2023-01-31T02:32:42.184Z,15.80
2023-01-31T02:35:16.608Z,15.78
2023-01-31T02:37:56.164Z,15.69
2023-01-31T02:40:29.684Z,15.38
2023-01-31T02:43:04.944Z,15.43
2023-01-31T02:45:41.117Z,15.57
2023-01-31T02:48:19.071Z,15.73
2023-01-31T02:50:55.252Z,15.78
2023-01-31T02:53:28.342Z,15.62
2023-01-31T02:56:01.507Z,15.61
2023-01-31T02:58:33.619Z,15.57
2023-01-31T03:01:03.649Z,15.25
2023-01-31T03:03:35.213Z,15.48
2023-01-31T03:06:27.812Z,14.93
2023-01-31T03:09:01.964Z,15.37
2023-01-31T03:11:36.449Z,15.65
2023-01-31T03:14:13.572Z,15.76
2023-01-31T03:16:50.439Z,15.95
2023-01-31T03:19:23.379Z,15.79
2023-01-31T03:21:56.672Z,15.80
2023-01-31T03:24:26.800Z,15.67
2023-01-31T03:26:55.953Z,15.72
2023-01-31T03:29:26.315Z,15.88
2023-01-31T03:31:57.377Z,16.05
2023-01-31T03:34:26.651Z,16.17
2023-01-31T03:36:57.537Z,16.26
2023-01-31T03:39:36.191Z,16.35
2023-01-31T03:42:06.526Z,16.50
2023-01-31T03:44:40.883Z,16.46
2023-01-31T03:47:15.556Z,16.55
2023-01-31T03:49:46.617Z,16.54
2023-01-31T03:52:18.922Z,16.54
2023-01-31T03:54:51.542Z,16.59
2023-01-31T03:57:23.221Z,16.65
2023-01-31T03:59:55.060Z,16.73
2023-01-31T04:02:25.072Z,16.66
2023-01-31T04:04:58.691Z,16.73
2023-01-31T04:07:25.558Z,16.73
2023-01-31T04:09:52.386Z,16.68
2023-01-31T04:12:19.233Z,16.79
2023-01-31T04:14:45.956Z,16.85
2023-01-31T04:17:13.338Z,16.73
2023-01-31T04:19:40.257Z,16.67
2023-01-31T04:22:08.483Z,16.47
2023-01-31T04:24:35.487Z,16.64
2023-01-31T04:27:02.543Z,16.61
2023-01-31T04:29:29.359Z,16.58
2023-01-31T04:31:56.248Z,16.71
2023-01-31T04:34:23.049Z,16.70
2023-01-31T04:36:49.776Z,16.67
2023-01-31T04:39:18.087Z,16.64
2023-01-31T04:41:44.855Z,16.71
2023-01-31T04:44:11.593Z,16.67
2023-01-31T04:46:38.624Z,16.72
2023-01-31T04:49:05.800Z,16.68
2023-01-31T04:51:32.882Z,16.59
2023-01-31T04:54:00.188Z,16.63
2023-01-31T04:56:28.479Z,16.71
2023-01-31T04:58:55.411Z,16.57
2023-01-31T05:01:22.272Z,16.72
2023-01-31T05:03:49.479Z,16.50
2023-01-31T05:06:16.224Z,16.71
2023-01-31T05:08:42.986Z,16.52
2023-01-31T05:11:09.997Z,16.70
2023-01-31T05:13:38.423Z,16.78
2023-01-31T05:16:07.735Z,16.88
2023-01-31T05:18:35.189Z,16.57
2023-01-31T05:21:02.727Z,16.78
2023-01-31T05:23:30.368Z,16.92
2023-01-31T05:25:57.810Z,17.10
2023-01-31T05:28:24.888Z,16.83
2023-01-31T05:30:53.244Z,16.86
2023-01-31T05:33:20.961Z,16.84
2023-01-31T05:35:48.202Z,17.36
2023-01-31T05:38:15.453Z,17.29
2023-01-31T05:40:42.551Z,17.04
2023-01-31T05:43:09.419Z,17.15
2023-01-31T05:45:36.281Z,17.04
2023-01-31T05:48:05.284Z,16.93
2023-01-31T05:50:32.268Z,16.66
2023-01-31T05:53:00.919Z,16.86
2023-01-31T05:55:27.981Z,17.04
2023-01-31T05:57:55.423Z,17.14
2023-01-31T06:00:23.058Z,17.19
2023-01-31T06:02:50.793Z,16.99
2023-01-31T06:05:19.560Z,17.10
2023-01-31T06:07:46.622Z,17.25
2023-01-31T06:10:13.941Z,16.80
2023-01-31T06:12:41.087Z,16.98
2023-01-31T06:15:08.583Z,16.89
2023-01-31T06:17:35.797Z,16.92
2023-01-31T06:20:03.747Z,17.06
2023-01-31T06:22:31.849Z,17.18
2023-01-31T06:24:58.639Z,17.41
2023-01-31T06:27:25.601Z,17.38
2023-01-31T06:29:52.252Z,17.59
2023-01-31T06:32:19.026Z,17.51
2023-01-31T06:34:46.016Z,17.34
2023-01-31T06:37:12.936Z,17.34
2023-01-31T06:39:41.478Z,17.41
2023-01-31T06:42:08.309Z,17.47
2023-01-31T06:44:35.457Z,17.50
2023-01-31T06:47:02.513Z,17.30
2023-01-31T06:49:29.446Z,17.40
2023-01-31T06:51:56.737Z,17.24
2023-01-31T06:54:23.665Z,17.42
2023-01-31T06:56:51.789Z,17.15
2023-01-31T06:59:18.661Z,17.08
2023-01-31T07:01:45.650Z,17.21
2023-01-31T07:04:12.447Z,17.28
2023-01-31T07:06:39.459Z,17.22
2023-01-31T07:09:06.467Z,17.39
2023-01-31T07:11:33.195Z,17.22
2023-01-31T07:14:01.503Z,17.46
2023-01-31T07:16:28.514Z,17.34
2023-01-31T07:18:56.441Z,17.18
2023-01-31T07:21:24.325Z,17.38
2023-01-31T07:23:51.339Z,17.34
2023-01-31T07:26:18.325Z,17.29
2023-01-31T07:28:45.200Z,17.16
2023-01-31T07:31:14.822Z,17.02
2023-01-31T07:33:41.911Z,17.07
2023-01-31T07:36:13.045Z,17.00
2023-01-31T07:38:40.346Z,17.08
2023-01-31T07:41:07.868Z,17.02
2023-01-31T07:43:34.890Z,17.01
2023-01-31T07:46:02.318Z,16.96
2023-01-31T07:48:30.406Z,16.97
2023-01-31T07:51:00.228Z,16.99
2023-01-31T07:53:28.199Z,16.71
2023-01-31T07:55:55.203Z,16.59
2023-01-31T07:58:21.962Z,16.65
2023-01-31T08:00:48.664Z,16.49
2023-01-31T08:03:24.985Z,16.43
2023-01-31T08:05:53.105Z,16.06
2023-01-31T08:08:19.864Z,16.00
2023-01-31T08:10:47.223Z,15.96
2023-01-31T08:13:14.052Z,16.08
2023-01-31T08:15:40.690Z,16.11
2023-01-31T08:18:07.394Z,15.56
2023-01-31T08:20:34.198Z,15.68
2023-01-31T08:23:02.376Z,15.68
2023-01-31T08:25:29.478Z,15.96
2023-01-31T08:27:57.590Z,15.96
2023-01-31T08:30:24.536Z,15.73
2023-01-31T08:32:51.246Z,15.98
2023-01-31T08:35:18.304Z,16.32
2023-01-31T08:37:45.208Z,15.94
2023-01-31T08:40:14.266Z,15.97
2023-01-31T08:42:41.122Z,16.13
2023-01-31T08:45:08.703Z,16.36
2023-01-31T08:47:35.449Z,16.21
2023-01-31T08:50:02.353Z,16.20
2023-01-31T08:52:29.021Z,16.38
2023-01-31T08:54:55.857Z,16.31
2023-01-31T08:57:24.156Z,16.08
2023-01-31T08:59:50.977Z,15.93
2023-01-31T09:02:17.859Z,16.08
2023-01-31T09:04:45.770Z,16.20
2023-01-31T09:07:12.527Z,16.25
2023-01-31T09:09:39.582Z,16.23
2023-01-31T09:12:06.899Z,16.64
2023-01-31T09:14:35.051Z,16.54
2023-01-31T09:17:02.046Z,16.74
2023-01-31T09:19:29.941Z,16.90
2023-01-31T09:21:56.865Z,16.72
2023-01-31T09:24:23.746Z,16.61
2023-01-31T09:26:50.533Z,16.85
2023-01-31T09:29:17.320Z,16.94
2023-01-31T09:31:45.588Z,16.68
2023-01-31T09:34:12.476Z,16.76
2023-01-31T09:36:39.273Z,16.36
2023-01-31T09:39:06.112Z,16.74
2023-01-31T09:41:37.339Z,16.82
2023-01-31T09:44:10.965Z,16.71
2023-01-31T09:46:42.879Z,16.69
2023-01-31T09:49:21.099Z,16.57
2023-01-31T09:51:53.296Z,16.75
2023-01-31T09:54:27.064Z,16.96
2023-01-31T09:57:04.780Z,16.69
2023-01-31T09:59:42.413Z,16.71
2023-01-31T10:02:30.681Z,16.84
2023-01-31T10:05:12.273Z,17.01
2023-01-31T10:07:46.374Z,16.66
2023-01-31T10:10:27.383Z,16.25
2023-01-31T10:12:56.473Z,15.48
2023-01-31T10:15:36.830Z,15.61
2023-01-31T10:18:10.782Z,14.91
2023-01-31T10:20:47.471Z,15.34
2023-01-31T10:23:21.513Z,15.59
2023-01-31T10:25:53.113Z,15.66
2023-01-31T10:28:24.089Z,15.26
2023-01-31T10:30:57.478Z,15.86
2023-01-31T10:33:34.496Z,16.02
2023-01-31T10:36:10.025Z,16.12
2023-01-31T10:38:44.199Z,16.43
2023-01-31T10:41:15.646Z,16.74
2023-01-31T10:43:51.474Z,16.30
2023-01-31T10:46:18.557Z,16.71
2023-01-31T10:48:48.341Z,16.58
2023-01-31T10:51:30.629Z,16.65
2023-01-31T10:54:14.067Z,16.99
2023-01-31T10:56:44.419Z,17.24
2023-01-31T10:59:22.231Z,17.71
2023-01-31T11:01:49.621Z,17.55
2023-01-31T11:04:30.234Z,17.86
2023-01-31T11:09:30.384Z,17.18
2023-01-31T11:11:58.827Z,17.87
2023-01-31T11:14:25.741Z,18.33
2023-01-31T11:16:59.788Z,18.38
2023-01-31T11:19:34.229Z,18.57
2023-01-31T11:22:03.528Z,18.76
2023-01-31T11:24:33.650Z,18.34
2023-01-31T11:27:03.879Z,18.41
2023-01-31T11:29:34.166Z,18.28
2023-01-31T11:32:04.787Z,18.01
2023-01-31T11:34:32.327Z,18.30
2023-01-31T11:37:15.685Z,17.69
2023-01-31T11:39:42.460Z,17.76
2023-01-31T11:42:14.027Z,17.79
2023-01-31T11:44:55.354Z,17.91
2023-01-31T11:47:33.061Z,17.48
2023-01-31T11:50:01.119Z,17.37
2023-01-31T11:52:32.460Z,17.30
2023-01-31T11:55:02.307Z,16.82
2023-01-31T11:57:32.388Z,16.64
2023-01-31T12:00:02.706Z,17.10
2023-01-31T12:02:36.842Z,17.64
2023-01-31T12:05:11.138Z,17.58
2023-01-31T12:07:45.795Z,17.17
2023-01-31T12:10:33.459Z,17.09
2023-01-31T12:13:16.672Z,16.77
2023-01-31T12:15:51.310Z,17.20
2023-01-31T12:18:38.802Z,17.17
2023-01-31T12:21:14.276Z,17.15
2023-01-31T12:23:52.911Z,17.67
2023-01-31T12:26:31.025Z,18.55
2023-01-31T12:29:14.134Z,19.07
2023-01-31T12:31:55.704Z,19.07
2023-01-31T12:34:57.943Z,19.27
2023-01-31T12:37:41.431Z,18.90
2023-01-31T12:40:34.679Z,18.40
2023-01-31T12:43:03.967Z,17.98
2023-01-31T12:45:49.727Z,17.73
2023-01-31T12:48:29.372Z,16.80
2023-01-31T12:51:05.731Z,16.67
2023-01-31T12:53:51.640Z,16.21
2023-01-31T12:56:46.000Z,16.34
2023-01-31T12:59:35.320Z,16.64
2023-01-31T13:02:16.052Z,16.91
2023-01-31T13:04:49.156Z,16.81
2023-01-31T13:07:25.825Z,16.57
2023-01-31T13:09:57.871Z,16.62
2023-01-31T13:12:30.800Z,16.64
2023-01-31T13:15:03.861Z,17.11
2023-01-31T13:17:33.704Z,17.11
2023-01-31T13:20:21.511Z,16.76
2023-01-31T13:22:53.330Z,17.20
2023-01-31T13:25:24.687Z,17.05
2023-01-31T13:27:59.824Z,17.34
2023-01-31T13:30:36.366Z,17.46
2023-01-31T13:33:17.366Z,16.75
2023-01-31T13:35:48.748Z,16.34
2023-01-31T13:38:20.809Z,16.85
2023-01-31T13:40:52.531Z,16.39
2023-01-31T13:43:21.199Z,16.73
2023-01-31T13:45:53.728Z,17.23
2023-01-31T13:48:28.348Z,17.40
2023-01-31T13:51:01.640Z,17.03
2023-01-31T13:53:34.588Z,16.80
2023-01-31T13:56:04.411Z,17.20
2023-01-31T13:58:35.581Z,17.03
2023-01-31T14:01:06.532Z,17.08
2023-01-31T14:04:09.764Z,17.41
2023-01-31T14:07:14.979Z,17.60
2023-01-31T14:09:46.095Z,17.50
2023-01-31T14:12:36.209Z,16.96
2023-01-31T14:15:47.254Z,17.85
2023-01-31T14:18:39.701Z,18.44
2023-01-31T14:21:55.020Z,18.30
2023-01-31T14:25:03.190Z,17.89
2023-01-31T14:27:33.795Z,17.66
2023-01-31T14:30:21.239Z,17.41
2023-01-31T14:32:51.011Z,17.24
2023-01-31T14:35:36.341Z,17.69
2023-01-31T14:38:12.262Z,17.80
2023-01-31T14:40:53.782Z,17.78
2023-01-31T14:43:35.970Z,17.69
2023-01-31T14:46:42.713Z,17.20
2023-01-31T14:49:46.992Z,16.97
2023-01-31T14:52:43.319Z,17.17
2023-01-31T14:55:33.676Z,17.46
2023-01-31T14:58:03.844Z,16.80
2023-01-31T15:00:33.215Z,16.51
2023-01-31T15:03:04.665Z,16.55
2023-01-31T15:05:48.287Z,16.93
2023-01-31T15:08:38.880Z,17.09
2023-01-31T15:11:07.440Z,16.98
2023-01-31T15:13:44.401Z,17.31
2023-01-31T15:16:18.991Z,16.99
2023-01-31T15:18:48.902Z,17.24
2023-01-31T15:21:25.401Z,17.22
2023-01-31T15:23:54.293Z,17.18
2023-01-31T15:26:24.193Z,17.12
2023-01-31T15:28:52.767Z,17.01
2023-01-31T15:31:27.325Z,16.92
2023-01-31T15:33:59.915Z,16.97
2023-01-31T15:36:33.798Z,16.82
2023-01-31T15:39:16.165Z,16.96
2023-01-31T15:41:44.972Z,16.88
2023-01-31T15:44:16.521Z,16.91
2023-01-31T15:46:44.200Z,16.60
2023-01-31T15:49:38.417Z,16.54
2023-01-31T15:52:13.601Z,16.56
2023-01-31T15:54:51.780Z,16.65
2023-01-31T15:57:19.403Z,16.32
2023-01-31T15:59:48.320Z,16.70
2023-01-31T16:02:22.568Z,16.64
2023-01-31T16:04:49.509Z,16.55
2023-01-31T16:07:20.396Z,16.61
2023-01-31T16:09:48.423Z,15.99
2023-01-31T16:12:16.540Z,16.21
2023-01-31T16:14:47.547Z,16.45
2023-01-31T16:17:15.101Z,16.49
2023-01-31T16:19:42.550Z,16.54
2023-01-31T16:22:26.291Z,16.08
2023-01-31T16:24:55.355Z,16.26
2023-01-31T16:27:23.612Z,16.09
2023-01-31T16:29:53.090Z,16.11
2023-01-31T16:32:22.507Z,16.22
2023-01-31T16:34:54.980Z,16.20
2023-01-31T16:37:32.806Z,15.94
2023-01-31T16:40:05.555Z,15.93
2023-01-31T16:42:32.788Z,16.10
2023-01-31T16:45:00.046Z,15.90
2023-01-31T16:47:46.299Z,15.64
2023-01-31T16:50:42.814Z,15.84
2023-01-31T16:53:29.138Z,16.01
2023-01-31T16:56:20.168Z,16.12
2023-01-31T16:58:53.438Z,16.08
2023-01-31T17:01:23.628Z,16.13
2023-01-31T17:04:06.904Z,16.27
2023-01-31T17:06:34.766Z,16.20
2023-01-31T17:09:05.398Z,16.14
2023-01-31T17:11:43.165Z,16.27
2023-01-31T17:14:10.360Z,16.05
2023-01-31T17:16:37.163Z,15.93
2023-01-31T17:19:03.919Z,16.06
2023-01-31T17:21:34.648Z,15.92
2023-01-31T17:24:02.969Z,15.97
2023-01-31T17:26:31.479Z,15.87
2023-01-31T17:29:01.828Z,15.54
2023-01-31T17:31:29.274Z,15.62
2023-01-31T17:33:56.168Z,15.55
2023-01-31T17:36:23.242Z,15.63
2023-01-31T17:38:51.892Z,15.63
2023-01-31T17:41:22.290Z,15.41
2023-01-31T17:43:49.023Z,15.34
2023-01-31T17:46:18.074Z,15.47
2023-01-31T17:48:47.189Z,15.29
2023-01-31T17:51:14.090Z,15.36
2023-01-31T17:53:49.393Z,15.42
2023-01-31T17:56:17.408Z,15.52
2023-01-31T17:58:46.035Z,15.32
2023-01-31T18:01:13.205Z,15.16
2023-01-31T18:03:40.122Z,15.31
2023-01-31T18:06:09.171Z,15.27
2023-01-31T18:08:36.168Z,15.32
2023-01-31T18:11:04.747Z,15.16
2023-01-31T18:13:31.939Z,15.05
2023-01-31T18:16:17.436Z,15.11
2023-01-31T18:18:44.583Z,14.99
2023-01-31T18:21:12.977Z,14.96
2023-01-31T18:23:39.808Z,15.07
2023-01-31T18:26:07.787Z,14.81
2023-01-31T18:28:35.104Z,14.59
2023-01-31T18:31:03.030Z,14.66
2023-01-31T18:33:32.176Z,14.97
2023-01-31T18:36:00.421Z,14.75
2023-01-31T18:38:28.465Z,14.59
2023-01-31T18:40:55.813Z,14.73
2023-01-31T18:43:23.457Z,14.77
2023-01-31T18:45:50.388Z,14.74
2023-01-31T18:48:17.558Z,14.59
2023-01-31T18:50:45.894Z,14.74
2023-01-31T18:53:12.556Z,14.73
2023-01-31T18:55:39.318Z,14.81
2023-01-31T18:58:06.143Z,14.60
2023-01-31T19:00:32.940Z,14.76
2023-01-31T19:02:59.966Z,14.59
2023-01-31T19:05:26.875Z,14.52
2023-01-31T19:07:55.228Z,14.64
2023-01-31T19:10:22.111Z,14.62
2023-01-31T19:12:48.920Z,14.51
2023-01-31T19:15:15.760Z,14.48
2023-01-31T19:17:42.585Z,14.36
2023-01-31T19:20:10.973Z,14.12
2023-01-31T19:22:37.689Z,14.19
2023-01-31T19:25:07.442Z,13.95
2023-01-31T19:27:34.122Z,14.25
2023-01-31T19:30:00.801Z,13.81
2023-01-31T19:32:27.546Z,13.98
2023-01-31T19:34:54.509Z,13.82
2023-01-31T19:37:21.383Z,13.98
2023-01-31T19:39:48.221Z,14.02
2023-01-31T19:42:16.349Z,13.68
2023-01-31T19:44:43.400Z,13.93
2023-01-31T19:47:10.172Z,14.03
2023-01-31T19:49:36.834Z,13.77
2023-01-31T19:52:03.782Z,14.12
2023-01-31T19:54:30.733Z,13.56
2023-01-31T19:56:57.479Z,13.45
2023-01-31T19:59:26.010Z,13.88
2023-01-31T20:01:53.060Z,13.83
2023-01-31T20:04:19.766Z,13.93
2023-01-31T20:06:46.754Z,14.02
2023-01-31T20:09:13.652Z,13.81
2023-01-31T20:11:40.388Z,13.71
2023-01-31T20:14:07.186Z,13.39
2023-01-31T20:16:35.659Z,13.71
2023-01-31T20:19:02.439Z,13.67
2023-01-31T20:21:29.268Z,13.81
2023-01-31T20:23:56.101Z,13.88
2023-01-31T20:26:22.884Z,14.02
2023-01-31T20:28:50.034Z,13.93
2023-01-31T20:31:17.587Z,14.00
2023-01-31T20:33:46.207Z,13.86
2023-01-31T20:36:14.351Z,13.88
2023-01-31T20:38:41.271Z,13.94
2023-01-31T20:41:08.825Z,14.16
2023-01-31T20:43:36.678Z,14.17
2023-01-31T20:46:04.877Z,13.97
2023-01-31T20:48:31.817Z,14.02
2023-01-31T20:51:00.125Z,13.97
2023-01-31T20:53:27.675Z,14.02
2023-01-31T20:55:56.460Z,13.92
2023-01-31T20:58:23.820Z,13.58
2023-01-31T21:00:52.499Z,13.84
2023-01-31T21:03:19.644Z,13.95
2023-01-31T21:05:46.387Z,13.89
2023-01-31T21:08:14.784Z,13.73
2023-01-31T21:10:41.679Z,13.71
2023-01-31T21:13:08.620Z,13.74
2023-01-31T21:15:35.382Z,13.67
2023-01-31T21:18:02.108Z,13.63
2023-01-31T21:20:28.882Z,13.50
2023-01-31T21:22:55.591Z,13.18
2023-01-31T21:25:23.891Z,13.28
2023-01-31T21:27:50.675Z,13.30
2023-01-31T21:30:19.099Z,13.38
2023-01-31T21:32:46.046Z,13.53
2023-01-31T21:35:12.916Z,13.54
2023-01-31T21:37:39.776Z,13.45
2023-01-31T21:40:07.986Z,13.36
2023-01-31T21:42:36.255Z,13.43
2023-01-31T21:45:02.980Z,13.48
2023-01-31T21:47:29.782Z,13.59
2023-01-31T21:49:56.516Z,13.85
2023-01-31T21:52:23.483Z,13.73
2023-01-31T21:54:50.432Z,13.78
2023-01-31T21:57:17.274Z,14.01
2023-01-31T21:59:45.630Z,14.04
2023-01-31T22:02:12.878Z,14.03
2023-01-31T22:04:39.836Z,14.00
2023-01-31T22:07:09.228Z,13.97
2023-01-31T22:09:36.159Z,13.92
2023-01-31T22:12:02.872Z,13.83
2023-01-31T22:14:29.565Z,13.65
2023-01-31T22:16:57.656Z,13.83
2023-01-31T22:19:24.464Z,13.98
2023-01-31T22:21:51.187Z,14.01
2023-01-31T22:24:19.026Z,13.88
2023-01-31T22:26:45.728Z,13.92
2023-01-31T22:29:14.558Z,14.02
2023-01-31T22:31:42.032Z,14.17
2023-01-31T22:34:12.775Z,14.15
2023-01-31T22:36:40.403Z,14.34
2023-01-31T22:39:07.701Z,14.23
2023-01-31T22:41:34.396Z,14.42
2023-01-31T22:44:01.312Z,14.35
2023-01-31T22:46:29.119Z,14.31
2023-01-31T22:48:56.360Z,14.44
2023-01-31T22:51:27.106Z,14.30
2023-01-31T22:53:54.877Z,14.66
2023-01-31T22:56:23.610Z,14.41
2023-01-31T22:58:55.164Z,14.55
2023-01-31T23:01:24.369Z,14.78
2023-01-31T23:03:51.472Z,14.72
2023-01-31T23:06:18.332Z,14.73
2023-01-31T23:08:46.746Z,14.79
2023-01-31T23:11:15.270Z,15.18
2023-01-31T23:13:43.208Z,14.90
2023-01-31T23:16:15.738Z,14.29
2023-01-31T23:18:42.462Z,14.25
2023-01-31T23:21:11.045Z,14.98
2023-01-31T23:23:37.831Z,15.04
2023-01-31T23:26:06.927Z,14.97
2023-01-31T23:28:33.974Z,15.20
2023-01-31T23:31:01.380Z,15.05
2023-01-31T23:33:28.747Z,15.12
2023-01-31T23:35:55.542Z,15.25
2023-01-31T23:38:22.461Z,15.51
2023-01-31T23:40:52.653Z,15.31
2023-01-31T23:43:21.893Z,15.04
2023-01-31T23:45:48.960Z,15.52
2023-01-31T23:48:16.207Z,15.36
2023-01-31T23:50:43.487Z,15.31
2023-01-31T23:53:10.667Z,15.36
2023-01-31T23:55:37.439Z,15.07
2023-01-31T23:58:04.303Z,14.70
